sensor_id;sensor_type;location;lat;lon;timestamp;temperature;humidity
9913;DHT22;41380;52.548;13.344;2022-10-16T00:01:45;15.20;99.90
9913;DHT22;41380;52.548;13.344;2022-10-16T00:04:13;15.30;99.90
9913;DHT22;41380;52.548;13.344;2022-10-16T00:06:40;15.40;99.90
9913;DHT22;41380;52.548;13.344;2022-10-16T00:09:08;15.50;99.90
9913;DHT22;41380;52.548;13.344;2022-10-16T00:11:38;15.60;99.90
9913;DHT22;41380;52.548;13.344;2022-10-16T00:14:06;15.60;99.90
9913;DHT22;41380;52.548;13.344;2022-10-16T00:16:34;15.70;99.90
9913;DHT22;41380;52.548;13.344;2022-10-16T00:19:02;15.70;99.90
9913;DHT22;41380;52.548;13.344;2022-10-16T00:21:31;15.70;99.90
9913;DHT22;41380;52.548;13.344;2022-10-16T00:24:00;15.70;99.90
9913;DHT22;41380;52.548;13.344;2022-10-16T00:26:31;15.80;99.90
9913;DHT22;41380;52.548;13.344;2022-10-16T00:28:58;15.80;99.90
9913;DHT22;41380;52.548;13.344;2022-10-16T00:31:25;15.80;99.90
9913;DHT22;41380;52.548;13.344;2022-10-16T00:33:52;15.80;99.90
9913;DHT22;41380;52.548;13.344;2022-10-16T00:36:21;15.80;99.90
9913;DHT22;41380;52.548;13.344;2022-10-16T00:38:50;15.70;99.90
9913;DHT22;41380;52.548;13.344;2022-10-16T00:41:18;15.70;99.90
9913;DHT22;41380;52.548;13.344;2022-10-16T00:43:48;15.60;99.90
9913;DHT22;41380;52.548;13.344;2022-10-16T00:46:18;15.60;99.90
9913;DHT22;41380;52.548;13.344;2022-10-16T00:48:51;15.60;99.90
9913;DHT22;41380;52.548;13.344;2022-10-16T00:51:21;15.70;99.90
9913;DHT22;41380;52.548;13.344;2022-10-16T00:53:49;15.70;99.90
9913;DHT22;41380;52.548;13.344;2022-10-16T00:56:17;15.60;99.90
9913;DHT22;41380;52.548;13.344;2022-10-16T00:58:46;15.70;99.90
9913;DHT22;41380;52.548;13.344;2022-10-16T01:01:13;15.70;99.90
9913;DHT22;41380;52.548;13.344;2022-10-16T01:03:40;15.70;99.90
9913;DHT22;41380;52.548;13.344;2022-10-16T01:06:21;15.60;99.90
9913;DHT22;41380;52.548;13.344;2022-10-16T01:11:44;15.60;99.90
9913;DHT22;41380;52.548;13.344;2022-10-16T01:14:19;15.60;99.90
9913;DHT22;41380;52.548;13.344;2022-10-16T01:16:52;15.60;99.90
9913;DHT22;41380;52.548;13.344;2022-10-16T01:19:26;15.60;99.90
9913;DHT22;41380;52.548;13.344;2022-10-16T01:22:00;15.60;99.90
9913;DHT22;41380;52.548;13.344;2022-10-16T01:24:33;15.60;99.90
9913;DHT22;41380;52.548;13.344;2022-10-16T01:27:09;15.60;99.90
9913;DHT22;41380;52.548;13.344;2022-10-16T01:29:41;15.60;99.90
9913;DHT22;41380;52.548;13.344;2022-10-16T01:32:15;15.60;99.90
9913;DHT22;41380;52.548;13.344;2022-10-16T01:34:48;15.70;99.90
9913;DHT22;41380;52.548;13.344;2022-10-16T01:37:25;15.70;99.90
9913;DHT22;41380;52.548;13.344;2022-10-16T01:39:58;15.60;99.90
9913;DHT22;41380;52.548;13.344;2022-10-16T01:42:31;15.60;99.90
9913;DHT22;41380;52.548;13.344;2022-10-16T01:45:01;15.60;99.90
9913;DHT22;41380;52.548;13.344;2022-10-16T01:47:31;15.60;99.90
9913;DHT22;41380;52.548;13.344;2022-10-16T01:49:59;15.60;99.90
9913;DHT22;41380;52.548;13.344;2022-10-16T01:52:32;15.60;99.90
9913;DHT22;41380;52.548;13.344;2022-10-16T01:55:03;15.60;99.90
9913;DHT22;41380;52.548;13.344;2022-10-16T01:57:34;15.60;99.90
9913;DHT22;41380;52.548;13.344;2022-10-16T02:00:07;15.50;99.90
9913;DHT22;41380;52.548;13.344;2022-10-16T02:02:35;15.50;99.90
9913;DHT22;41380;52.548;13.344;2022-10-16T02:05:08;15.60;99.90
9913;DHT22;41380;52.548;13.344;2022-10-16T02:07:37;15.60;99.90
9913;DHT22;41380;52.548;13.344;2022-10-16T02:10:05;15.60;99.90
9913;DHT22;41380;52.548;13.344;2022-10-16T02:12:34;15.60;99.90
9913;DHT22;41380;52.548;13.344;2022-10-16T02:15:03;15.60;99.90
9913;DHT22;41380;52.548;13.344;2022-10-16T02:17:30;15.60;99.90
9913;DHT22;41380;52.548;13.344;2022-10-16T02:19:58;15.70;99.90
9913;DHT22;41380;52.548;13.344;2022-10-16T02:22:28;15.70;99.90
9913;DHT22;41380;52.548;13.344;2022-10-16T02:24:59;15.70;99.90
9913;DHT22;41380;52.548;13.344;2022-10-16T02:27:31;15.70;99.90
9913;DHT22;41380;52.548;13.344;2022-10-16T02:30:08;15.70;99.90
9913;DHT22;41380;52.548;13.344;2022-10-16T02:32:42;15.70;99.90
9913;DHT22;41380;52.548;13.344;2022-10-16T02:35:09;15.70;99.90
9913;DHT22;41380;52.548;13.344;2022-10-16T02:37:38;15.70;99.90
9913;DHT22;41380;52.548;13.344;2022-10-16T02:40:08;15.70;99.90
9913;DHT22;41380;52.548;13.344;2022-10-16T02:42:36;15.70;99.90
9913;DHT22;41380;52.548;13.344;2022-10-16T02:45:06;15.70;99.90
9913;DHT22;41380;52.548;13.344;2022-10-16T02:47:34;15.70;99.90
9913;DHT22;41380;52.548;13.344;2022-10-16T02:50:04;15.70;99.90
9913;DHT22;41380;52.548;13.344;2022-10-16T02:52:31;15.70;99.90
9913;DHT22;41380;52.548;13.344;2022-10-16T02:54:58;15.60;99.90
9913;DHT22;41380;52.548;13.344;2022-10-16T02:57:25;15.60;99.90
9913;DHT22;41380;52.548;13.344;2022-10-16T02:59:52;15.50;99.90
9913;DHT22;41380;52.548;13.344;2022-10-16T03:02:20;15.50;99.90
9913;DHT22;41380;52.548;13.344;2022-10-16T03:04:47;15.40;99.90
9913;DHT22;41380;52.548;13.344;2022-10-16T03:07:14;15.40;99.90
9913;DHT22;41380;52.548;13.344;2022-10-16T03:09:41;15.30;99.90
9913;DHT22;41380;52.548;13.344;2022-10-16T03:12:08;15.20;99.90
9913;DHT22;41380;52.548;13.344;2022-10-16T03:14:35;15.20;99.90
9913;DHT22;41380;52.548;13.344;2022-10-16T03:17:02;15.10;99.90
9913;DHT22;41380;52.548;13.344;2022-10-16T03:19:30;15.00;99.90
9913;DHT22;41380;52.548;13.344;2022-10-16T03:21:57;15.00;99.90
9913;DHT22;41380;52.548;13.344;2022-10-16T03:24:23;14.90;99.90
9913;DHT22;41380;52.548;13.344;2022-10-16T03:26:51;14.90;99.90
9913;DHT22;41380;52.548;13.344;2022-10-16T03:29:17;14.90;99.90
9913;DHT22;41380;52.548;13.344;2022-10-16T03:31:44;14.90;99.90
9913;DHT22;41380;52.548;13.344;2022-10-16T03:34:11;14.80;99.90
9913;DHT22;41380;52.548;13.344;2022-10-16T03:36:39;14.80;99.90
9913;DHT22;41380;52.548;13.344;2022-10-16T03:39:06;14.70;99.90
9913;DHT22;41380;52.548;13.344;2022-10-16T03:41:33;14.80;99.90
9913;DHT22;41380;52.548;13.344;2022-10-16T03:43:59;14.70;99.90
9913;DHT22;41380;52.548;13.344;2022-10-16T03:46:26;14.70;99.90
9913;DHT22;41380;52.548;13.344;2022-10-16T03:48:53;14.70;99.90
9913;DHT22;41380;52.548;13.344;2022-10-16T03:51:20;14.70;99.90
9913;DHT22;41380;52.548;13.344;2022-10-16T03:53:48;14.70;99.90
9913;DHT22;41380;52.548;13.344;2022-10-16T03:56:15;14.70;99.90
9913;DHT22;41380;52.548;13.344;2022-10-16T03:58:42;14.70;99.90
9913;DHT22;41380;52.548;13.344;2022-10-16T04:01:09;14.70;99.90
9913;DHT22;41380;52.548;13.344;2022-10-16T04:03:36;14.80;99.90
9913;DHT22;41380;52.548;13.344;2022-10-16T04:06:03;14.80;99.90
9913;DHT22;41380;52.548;13.344;2022-10-16T04:08:31;14.80;99.90
9913;DHT22;41380;52.548;13.344;2022-10-16T04:11:01;14.80;99.90
9913;DHT22;41380;52.548;13.344;2022-10-16T04:13:28;14.80;99.90
9913;DHT22;41380;52.548;13.344;2022-10-16T04:15:56;14.80;99.90
9913;DHT22;41380;52.548;13.344;2022-10-16T04:18:23;14.80;99.90
9913;DHT22;41380;52.548;13.344;2022-10-16T04:20:52;14.80;99.90
9913;DHT22;41380;52.548;13.344;2022-10-16T04:23:19;14.80;99.90
9913;DHT22;41380;52.548;13.344;2022-10-16T04:25:46;14.70;99.90
9913;DHT22;41380;52.548;13.344;2022-10-16T04:28:14;14.70;99.90
9913;DHT22;41380;52.548;13.344;2022-10-16T04:30:41;14.70;99.90
9913;DHT22;41380;52.548;13.344;2022-10-16T04:33:11;14.70;99.90
9913;DHT22;41380;52.548;13.344;2022-10-16T04:35:38;14.70;99.90
9913;DHT22;41380;52.548;13.344;2022-10-16T04:38:05;14.60;99.90
9913;DHT22;41380;52.548;13.344;2022-10-16T04:40:32;14.60;99.90
9913;DHT22;41380;52.548;13.344;2022-10-16T04:43:01;14.60;99.90
9913;DHT22;41380;52.548;13.344;2022-10-16T04:45:30;14.50;99.90
9913;DHT22;41380;52.548;13.344;2022-10-16T04:47:57;14.50;99.90
9913;DHT22;41380;52.548;13.344;2022-10-16T04:50:24;14.50;99.90
9913;DHT22;41380;52.548;13.344;2022-10-16T04:52:51;14.50;99.90
9913;DHT22;41380;52.548;13.344;2022-10-16T04:55:17;14.50;99.90
9913;DHT22;41380;52.548;13.344;2022-10-16T04:57:44;14.40;99.90
9913;DHT22;41380;52.548;13.344;2022-10-16T05:00:12;14.40;99.90
9913;DHT22;41380;52.548;13.344;2022-10-16T05:02:40;14.40;99.90
9913;DHT22;41380;52.548;13.344;2022-10-16T05:05:07;14.40;99.90
9913;DHT22;41380;52.548;13.344;2022-10-16T05:07:34;14.30;99.90
9913;DHT22;41380;52.548;13.344;2022-10-16T05:10:01;14.30;99.90
9913;DHT22;41380;52.548;13.344;2022-10-16T05:12:28;14.30;99.90
9913;DHT22;41380;52.548;13.344;2022-10-16T05:14:54;14.30;99.90
9913;DHT22;41380;52.548;13.344;2022-10-16T05:17:24;14.30;99.90
9913;DHT22;41380;52.548;13.344;2022-10-16T05:19:52;14.30;99.90
9913;DHT22;41380;52.548;13.344;2022-10-16T05:22:19;14.30;99.90
9913;DHT22;41380;52.548;13.344;2022-10-16T05:24:46;14.40;99.90
9913;DHT22;41380;52.548;13.344;2022-10-16T05:27:13;14.50;99.90
9913;DHT22;41380;52.548;13.344;2022-10-16T05:29:44;14.50;99.90
9913;DHT22;41380;52.548;13.344;2022-10-16T05:32:12;14.60;99.90
9913;DHT22;41380;52.548;13.344;2022-10-16T05:34:39;14.60;99.90
9913;DHT22;41380;52.548;13.344;2022-10-16T05:37:07;14.60;99.90
9913;DHT22;41380;52.548;13.344;2022-10-16T05:39:34;14.60;99.90
9913;DHT22;41380;52.548;13.344;2022-10-16T05:42:02;14.60;99.90
9913;DHT22;41380;52.548;13.344;2022-10-16T05:44:29;14.70;99.90
9913;DHT22;41380;52.548;13.344;2022-10-16T05:46:56;14.80;99.90
9913;DHT22;41380;52.548;13.344;2022-10-16T05:49:23;14.80;99.90
9913;DHT22;41380;52.548;13.344;2022-10-16T05:51:49;14.90;99.90
9913;DHT22;41380;52.548;13.344;2022-10-16T05:54:18;15.00;99.90
9913;DHT22;41380;52.548;13.344;2022-10-16T05:56:45;15.10;99.90
9913;DHT22;41380;52.548;13.344;2022-10-16T05:59:12;15.10;99.90
9913;DHT22;41380;52.548;13.344;2022-10-16T06:01:39;15.10;99.90
9913;DHT22;41380;52.548;13.344;2022-10-16T06:04:06;15.20;99.90
9913;DHT22;41380;52.548;13.344;2022-10-16T06:06:33;15.20;99.90
9913;DHT22;41380;52.548;13.344;2022-10-16T06:09:02;15.20;99.90
9913;DHT22;41380;52.548;13.344;2022-10-16T06:11:33;15.20;99.90
9913;DHT22;41380;52.548;13.344;2022-10-16T06:14:02;15.20;99.90
9913;DHT22;41380;52.548;13.344;2022-10-16T06:16:32;15.30;99.90
9913;DHT22;41380;52.548;13.344;2022-10-16T06:19:00;15.30;99.90
9913;DHT22;41380;52.548;13.344;2022-10-16T06:21:28;15.50;99.90
9913;DHT22;41380;52.548;13.344;2022-10-16T06:23:56;15.50;99.90
9913;DHT22;41380;52.548;13.344;2022-10-16T06:26:26;15.60;99.90
9913;DHT22;41380;52.548;13.344;2022-10-16T06:28:56;15.60;99.90
9913;DHT22;41380;52.548;13.344;2022-10-16T06:31:27;15.70;99.90
9913;DHT22;41380;52.548;13.344;2022-10-16T06:33:56;15.70;99.90
9913;DHT22;41380;52.548;13.344;2022-10-16T06:36:25;15.80;99.90
9913;DHT22;41380;52.548;13.344;2022-10-16T06:38:52;15.90;99.90
9913;DHT22;41380;52.548;13.344;2022-10-16T06:41:21;15.90;99.90
9913;DHT22;41380;52.548;13.344;2022-10-16T06:43:48;15.90;99.90
9913;DHT22;41380;52.548;13.344;2022-10-16T06:46:18;15.90;99.90
9913;DHT22;41380;52.548;13.344;2022-10-16T06:48:48;16.00;99.90
9913;DHT22;41380;52.548;13.344;2022-10-16T06:51:16;16.10;99.90
9913;DHT22;41380;52.548;13.344;2022-10-16T06:53:45;16.20;99.90
9913;DHT22;41380;52.548;13.344;2022-10-16T06:56:16;16.40;99.90
9913;DHT22;41380;52.548;13.344;2022-10-16T06:58:43;16.50;99.90
9913;DHT22;41380;52.548;13.344;2022-10-16T07:01:11;16.60;99.90
9913;DHT22;41380;52.548;13.344;2022-10-16T07:03:41;16.70;99.90
9913;DHT22;41380;52.548;13.344;2022-10-16T07:06:10;16.80;99.90
9913;DHT22;41380;52.548;13.344;2022-10-16T07:08:39;16.90;99.90
9913;DHT22;41380;52.548;13.344;2022-10-16T07:11:09;17.00;99.90
9913;DHT22;41380;52.548;13.344;2022-10-16T07:13:37;17.20;99.90
9913;DHT22;41380;52.548;13.344;2022-10-16T07:16:08;17.30;99.90
9913;DHT22;41380;52.548;13.344;2022-10-16T07:18:36;17.50;99.90
9913;DHT22;41380;52.548;13.344;2022-10-16T07:21:06;17.50;99.90
9913;DHT22;41380;52.548;13.344;2022-10-16T07:23:33;17.60;99.90
9913;DHT22;41380;52.548;13.344;2022-10-16T07:26:00;17.60;99.90
9913;DHT22;41380;52.548;13.344;2022-10-16T07:28:27;17.70;99.90
9913;DHT22;41380;52.548;13.344;2022-10-16T07:30:54;17.80;99.90
9913;DHT22;41380;52.548;13.344;2022-10-16T07:33:22;17.90;99.90
9913;DHT22;41380;52.548;13.344;2022-10-16T07:35:50;18.00;99.90
9913;DHT22;41380;52.548;13.344;2022-10-16T07:38:20;18.00;99.80
9913;DHT22;41380;52.548;13.344;2022-10-16T07:40:48;18.10;99.70
9913;DHT22;41380;52.548;13.344;2022-10-16T07:43:21;18.20;99.60
9913;DHT22;41380;52.548;13.344;2022-10-16T07:45:49;18.20;99.40
9913;DHT22;41380;52.548;13.344;2022-10-16T07:48:17;18.20;99.40
9913;DHT22;41380;52.548;13.344;2022-10-16T07:50:44;18.30;99.30
9913;DHT22;41380;52.548;13.344;2022-10-16T07:53:12;18.20;99.30
9913;DHT22;41380;52.548;13.344;2022-10-16T07:55:40;18.30;99.30
9913;DHT22;41380;52.548;13.344;2022-10-16T07:58:07;18.20;99.30
9913;DHT22;41380;52.548;13.344;2022-10-16T08:00:36;18.20;99.30
9913;DHT22;41380;52.548;13.344;2022-10-16T08:03:03;18.10;99.30
9913;DHT22;41380;52.548;13.344;2022-10-16T08:05:32;18.10;99.40
9913;DHT22;41380;52.548;13.344;2022-10-16T08:07:59;18.00;99.50
9913;DHT22;41380;52.548;13.344;2022-10-16T08:10:27;18.00;99.50
9913;DHT22;41380;52.548;13.344;2022-10-16T08:12:56;18.00;99.60
9913;DHT22;41380;52.548;13.344;2022-10-16T08:15:23;18.10;99.60
9913;DHT22;41380;52.548;13.344;2022-10-16T08:17:57;18.20;99.50
9913;DHT22;41380;52.548;13.344;2022-10-16T08:20:25;18.20;99.40
9913;DHT22;41380;52.548;13.344;2022-10-16T08:22:52;18.40;99.30
9913;DHT22;41380;52.548;13.344;2022-10-16T08:25:19;18.40;99.10
9913;DHT22;41380;52.548;13.344;2022-10-16T08:27:47;18.40;99.10
9913;DHT22;41380;52.548;13.344;2022-10-16T08:30:15;18.40;99.00
9913;DHT22;41380;52.548;13.344;2022-10-16T08:32:43;18.50;99.00
9913;DHT22;41380;52.548;13.344;2022-10-16T08:35:10;18.50;99.00
9913;DHT22;41380;52.548;13.344;2022-10-16T08:37:37;18.50;99.00
9913;DHT22;41380;52.548;13.344;2022-10-16T08:40:07;18.50;98.90
9913;DHT22;41380;52.548;13.344;2022-10-16T08:42:49;18.70;98.90
9913;DHT22;41380;52.548;13.344;2022-10-16T08:45:31;18.70;98.60
9913;DHT22;41380;52.548;13.344;2022-10-16T08:48:09;18.90;98.60
9913;DHT22;41380;52.548;13.344;2022-10-16T08:50:39;19.00;98.50
9913;DHT22;41380;52.548;13.344;2022-10-16T08:53:09;19.10;98.20
9913;DHT22;41380;52.548;13.344;2022-10-16T08:55:42;19.10;98.10
9913;DHT22;41380;52.548;13.344;2022-10-16T08:58:13;19.30;98.00
9913;DHT22;41380;52.548;13.344;2022-10-16T09:00:43;19.40;97.80
9913;DHT22;41380;52.548;13.344;2022-10-16T09:03:17;19.40;97.80
9913;DHT22;41380;52.548;13.344;2022-10-16T09:06:16;19.40;97.80
9913;DHT22;41380;52.548;13.344;2022-10-16T09:08:57;19.70;97.60
9913;DHT22;41380;52.548;13.344;2022-10-16T09:11:38;20.00;97.10
9913;DHT22;41380;52.548;13.344;2022-10-16T09:14:26;20.10;96.90
9913;DHT22;41380;52.548;13.344;2022-10-16T09:17:12;20.20;96.70
9913;DHT22;41380;52.548;13.344;2022-10-16T09:19:46;20.30;96.60
9913;DHT22;41380;52.548;13.344;2022-10-16T09:22:16;20.30;96.50
9913;DHT22;41380;52.548;13.344;2022-10-16T09:24:43;20.20;96.70
9913;DHT22;41380;52.548;13.344;2022-10-16T09:27:10;20.20;96.60
9913;DHT22;41380;52.548;13.344;2022-10-16T09:29:37;20.10;96.60
9913;DHT22;41380;52.548;13.344;2022-10-16T09:32:12;19.90;96.80
9913;DHT22;41380;52.548;13.344;2022-10-16T09:34:43;19.90;96.80
9913;DHT22;41380;52.548;13.344;2022-10-16T09:37:14;19.90;96.80
9913;DHT22;41380;52.548;13.344;2022-10-16T09:39:48;19.90;96.80
9913;DHT22;41380;52.548;13.344;2022-10-16T09:42:17;19.80;96.80
9913;DHT22;41380;52.548;13.344;2022-10-16T09:44:48;19.80;96.80
9913;DHT22;41380;52.548;13.344;2022-10-16T09:47:22;19.80;96.80
9913;DHT22;41380;52.548;13.344;2022-10-16T09:49:53;19.80;96.80
9913;DHT22;41380;52.548;13.344;2022-10-16T09:52:21;19.70;96.90
9913;DHT22;41380;52.548;13.344;2022-10-16T09:54:52;19.80;96.90
9913;DHT22;41380;52.548;13.344;2022-10-16T09:57:21;19.80;96.60
9913;DHT22;41380;52.548;13.344;2022-10-16T09:59:50;19.90;96.60
9913;DHT22;41380;52.548;13.344;2022-10-16T10:02:20;20.00;96.70
9913;DHT22;41380;52.548;13.344;2022-10-16T10:04:51;20.20;96.40
9913;DHT22;41380;52.548;13.344;2022-10-16T10:07:24;20.40;96.00
9913;DHT22;41380;52.548;13.344;2022-10-16T10:09:53;20.50;95.90
9913;DHT22;41380;52.548;13.344;2022-10-16T10:12:22;20.30;95.90
9913;DHT22;41380;52.548;13.344;2022-10-16T10:14:51;20.30;96.00
9913;DHT22;41380;52.548;13.344;2022-10-16T10:17:21;20.20;96.00
9913;DHT22;41380;52.548;13.344;2022-10-16T10:19:51;20.10;96.00
9913;DHT22;41380;52.548;13.344;2022-10-16T10:22:28;20.10;96.20
9913;DHT22;41380;52.548;13.344;2022-10-16T10:24:57;20.10;96.00
9913;DHT22;41380;52.548;13.344;2022-10-16T10:27:35;20.10;96.10
9913;DHT22;41380;52.548;13.344;2022-10-16T10:30:09;20.00;96.10
9913;DHT22;41380;52.548;13.344;2022-10-16T10:32:49;20.00;96.00
9913;DHT22;41380;52.548;13.344;2022-10-16T10:35:22;20.00;96.20
9913;DHT22;41380;52.548;13.344;2022-10-16T10:38:02;19.90;96.20
9913;DHT22;41380;52.548;13.344;2022-10-16T10:40:44;20.00;96.20
9913;DHT22;41380;52.548;13.344;2022-10-16T10:43:30;20.10;96.00
9913;DHT22;41380;52.548;13.344;2022-10-16T10:46:07;20.30;95.90
9913;DHT22;41380;52.548;13.344;2022-10-16T10:48:52;20.50;95.70
9913;DHT22;41380;52.548;13.344;2022-10-16T10:51:25;20.70;95.30
9913;DHT22;41380;52.548;13.344;2022-10-16T10:54:04;20.90;95.10
9913;DHT22;41380;52.548;13.344;2022-10-16T10:56:43;21.20;94.60
9913;DHT22;41380;52.548;13.344;2022-10-16T10:59:28;21.70;94.20
9913;DHT22;41380;52.548;13.344;2022-10-16T11:02:00;21.80;93.40
9913;DHT22;41380;52.548;13.344;2022-10-16T11:04:52;22.10;93.30
9913;DHT22;41380;52.548;13.344;2022-10-16T11:07:25;22.30;93.00
9913;DHT22;41380;52.548;13.344;2022-10-16T11:09:56;22.20;92.80
9913;DHT22;41380;52.548;13.344;2022-10-16T11:12:27;22.10;92.80
9913;DHT22;41380;52.548;13.344;2022-10-16T11:14:58;22.10;92.50
9913;DHT22;41380;52.548;13.344;2022-10-16T11:17:29;22.00;92.60
9913;DHT22;41380;52.548;13.344;2022-10-16T11:20:03;21.90;92.40
9913;DHT22;41380;52.548;13.344;2022-10-16T11:22:34;21.80;92.60
9913;DHT22;41380;52.548;13.344;2022-10-16T11:25:06;21.80;92.50
9913;DHT22;41380;52.548;13.344;2022-10-16T11:27:43;21.70;92.50
9913;DHT22;41380;52.548;13.344;2022-10-16T11:30:16;21.50;92.50
9913;DHT22;41380;52.548;13.344;2022-10-16T11:32:54;21.30;92.60
9913;DHT22;41380;52.548;13.344;2022-10-16T11:35:37;21.00;92.80
9913;DHT22;41380;52.548;13.344;2022-10-16T11:38:11;20.80;93.20
9913;DHT22;41380;52.548;13.344;2022-10-16T11:40:41;20.60;93.20
9913;DHT22;41380;52.548;13.344;2022-10-16T11:43:13;20.50;93.30
9913;DHT22;41380;52.548;13.344;2022-10-16T11:45:44;20.30;93.40
9913;DHT22;41380;52.548;13.344;2022-10-16T11:48:20;20.20;93.30
9913;DHT22;41380;52.548;13.344;2022-10-16T11:50:53;20.10;93.20
9913;DHT22;41380;52.548;13.344;2022-10-16T11:53:31;20.10;93.20
9913;DHT22;41380;52.548;13.344;2022-10-16T11:56:01;20.10;93.60
9913;DHT22;41380;52.548;13.344;2022-10-16T11:58:32;19.90;93.10
9913;DHT22;41380;52.548;13.344;2022-10-16T12:01:15;20.00;93.30
9913;DHT22;41380;52.548;13.344;2022-10-16T12:03:45;20.20;93.30
9913;DHT22;41380;52.548;13.344;2022-10-16T12:06:25;20.20;93.20
9913;DHT22;41380;52.548;13.344;2022-10-16T12:08:54;20.20;93.20
9913;DHT22;41380;52.548;13.344;2022-10-16T12:11:33;20.40;93.10
9913;DHT22;41380;52.548;13.344;2022-10-16T12:16:55;20.80;91.80
9913;DHT22;41380;52.548;13.344;2022-10-16T12:19:24;20.90;91.20
9913;DHT22;41380;52.548;13.344;2022-10-16T12:21:56;20.80;90.90
9913;DHT22;41380;52.548;13.344;2022-10-16T12:24:32;20.90;90.80
9913;DHT22;41380;52.548;13.344;2022-10-16T12:27:00;21.00;90.40
9913;DHT22;41380;52.548;13.344;2022-10-16T12:29:32;21.00;90.60
9913;DHT22;41380;52.548;13.344;2022-10-16T12:32:02;21.00;90.00
9913;DHT22;41380;52.548;13.344;2022-10-16T12:34:35;20.90;90.20
9913;DHT22;41380;52.548;13.344;2022-10-16T12:37:14;20.90;90.10
9913;DHT22;41380;52.548;13.344;2022-10-16T12:39:42;21.00;90.10
9913;DHT22;41380;52.548;13.344;2022-10-16T12:42:37;21.00;90.00
9913;DHT22;41380;52.548;13.344;2022-10-16T12:45:26;21.10;89.40
9913;DHT22;41380;52.548;13.344;2022-10-16T12:47:54;21.10;89.30
9913;DHT22;41380;52.548;13.344;2022-10-16T12:50:28;21.20;88.30
9913;DHT22;41380;52.548;13.344;2022-10-16T12:52:59;21.20;88.10
9913;DHT22;41380;52.548;13.344;2022-10-16T12:55:26;21.30;88.50
9913;DHT22;41380;52.548;13.344;2022-10-16T12:58:23;21.30;87.90
9913;DHT22;41380;52.548;13.344;2022-10-16T13:00:56;21.20;86.90
9913;DHT22;41380;52.548;13.344;2022-10-16T13:03:43;21.10;87.00
9913;DHT22;41380;52.548;13.344;2022-10-16T13:06:20;21.10;87.30
9913;DHT22;41380;52.548;13.344;2022-10-16T13:09:17;21.10;87.70
9913;DHT22;41380;52.548;13.344;2022-10-16T13:12:01;21.20;87.90
9913;DHT22;41380;52.548;13.344;2022-10-16T13:14:56;21.20;86.60
9913;DHT22;41380;52.548;13.344;2022-10-16T13:17:32;21.30;87.90
9913;DHT22;41380;52.548;13.344;2022-10-16T13:20:12;21.40;86.90
9913;DHT22;41380;52.548;13.344;2022-10-16T13:22:46;21.40;86.80
9913;DHT22;41380;52.548;13.344;2022-10-16T13:25:25;21.30;87.20
9913;DHT22;41380;52.548;13.344;2022-10-16T13:27:55;21.10;87.50
9913;DHT22;41380;52.548;13.344;2022-10-16T13:30:25;20.80;88.10
9913;DHT22;41380;52.548;13.344;2022-10-16T13:32:59;20.60;88.80
9913;DHT22;41380;52.548;13.344;2022-10-16T13:35:28;20.40;90.00
9913;DHT22;41380;52.548;13.344;2022-10-16T13:38:20;20.20;90.40
9913;DHT22;41380;52.548;13.344;2022-10-16T13:40:54;19.90;90.70
9913;DHT22;41380;52.548;13.344;2022-10-16T13:43:24;19.70;91.10
9913;DHT22;41380;52.548;13.344;2022-10-16T13:45:54;19.70;91.20
9913;DHT22;41380;52.548;13.344;2022-10-16T13:48:21;19.80;91.00
9913;DHT22;41380;52.548;13.344;2022-10-16T13:50:59;19.80;90.10
9913;DHT22;41380;52.548;13.344;2022-10-16T13:53:26;19.90;90.50
9913;DHT22;41380;52.548;13.344;2022-10-16T13:55:57;20.00;89.80
9913;DHT22;41380;52.548;13.344;2022-10-16T13:58:27;20.10;90.00
9913;DHT22;41380;52.548;13.344;2022-10-16T14:00:56;20.20;89.40
9913;DHT22;41380;52.548;13.344;2022-10-16T14:03:24;20.20;89.00
9913;DHT22;41380;52.548;13.344;2022-10-16T14:05:53;20.30;88.60
9913;DHT22;41380;52.548;13.344;2022-10-16T14:08:21;20.40;88.10
9913;DHT22;41380;52.548;13.344;2022-10-16T14:10:50;20.50;87.70
9913;DHT22;41380;52.548;13.344;2022-10-16T14:13:22;20.50;88.20
9913;DHT22;41380;52.548;13.344;2022-10-16T14:15:52;20.50;88.10
9913;DHT22;41380;52.548;13.344;2022-10-16T14:18:22;20.50;88.00
9913;DHT22;41380;52.548;13.344;2022-10-16T14:20:49;20.50;87.90
9913;DHT22;41380;52.548;13.344;2022-10-16T14:23:21;20.20;88.40
9913;DHT22;41380;52.548;13.344;2022-10-16T14:25:48;20.10;88.80
9913;DHT22;41380;52.548;13.344;2022-10-16T14:28:18;20.10;88.90
9913;DHT22;41380;52.548;13.344;2022-10-16T14:30:51;20.20;89.10
9913;DHT22;41380;52.548;13.344;2022-10-16T14:33:22;20.20;89.30
9913;DHT22;41380;52.548;13.344;2022-10-16T14:36:01;20.20;89.50
9913;DHT22;41380;52.548;13.344;2022-10-16T14:38:29;20.10;89.30
9913;DHT22;41380;52.548;13.344;2022-10-16T14:40:58;20.20;89.60
9913;DHT22;41380;52.548;13.344;2022-10-16T14:43:32;20.20;89.60
9913;DHT22;41380;52.548;13.344;2022-10-16T14:45:59;20.10;89.90
9913;DHT22;41380;52.548;13.344;2022-10-16T14:48:28;20.10;89.30
9913;DHT22;41380;52.548;13.344;2022-10-16T14:50:55;20.10;89.10
9913;DHT22;41380;52.548;13.344;2022-10-16T14:53:22;20.10;89.20
9913;DHT22;41380;52.548;13.344;2022-10-16T14:55:49;20.00;89.30
9913;DHT22;41380;52.548;13.344;2022-10-16T14:58:18;19.90;89.30
9913;DHT22;41380;52.548;13.344;2022-10-16T15:00:47;19.90;89.90
9913;DHT22;41380;52.548;13.344;2022-10-16T15:03:14;19.90;89.60
9913;DHT22;41380;52.548;13.344;2022-10-16T15:05:41;19.80;89.30
9913;DHT22;41380;52.548;13.344;2022-10-16T15:08:08;19.80;89.60
9913;DHT22;41380;52.548;13.344;2022-10-16T15:10:40;19.70;89.60
9913;DHT22;41380;52.548;13.344;2022-10-16T15:13:11;19.60;89.30
9913;DHT22;41380;52.548;13.344;2022-10-16T15:15:41;19.60;89.20
9913;DHT22;41380;52.548;13.344;2022-10-16T15:18:09;19.50;89.30
9913;DHT22;41380;52.548;13.344;2022-10-16T15:20:38;19.40;89.80
9913;DHT22;41380;52.548;13.344;2022-10-16T15:23:10;19.30;90.00
9913;DHT22;41380;52.548;13.344;2022-10-16T15:25:42;19.10;90.00
9913;DHT22;41380;52.548;13.344;2022-10-16T15:28:10;19.00;90.00
9913;DHT22;41380;52.548;13.344;2022-10-16T15:30:37;19.00;90.00
9913;DHT22;41380;52.548;13.344;2022-10-16T15:33:13;18.80;90.10
9913;DHT22;41380;52.548;13.344;2022-10-16T15:35:40;18.70;90.20
9913;DHT22;41380;52.548;13.344;2022-10-16T15:38:10;18.50;90.40
9913;DHT22;41380;52.548;13.344;2022-10-16T15:40:38;18.40;90.90
9913;DHT22;41380;52.548;13.344;2022-10-16T15:43:05;18.20;91.10
9913;DHT22;41380;52.548;13.344;2022-10-16T15:45:32;18.00;91.10
9913;DHT22;41380;52.548;13.344;2022-10-16T15:47:59;17.90;91.20
9913;DHT22;41380;52.548;13.344;2022-10-16T15:50:29;17.70;91.40
9913;DHT22;41380;52.548;13.344;2022-10-16T15:52:56;17.60;91.70
9913;DHT22;41380;52.548;13.344;2022-10-16T15:55:23;17.50;91.80
9913;DHT22;41380;52.548;13.344;2022-10-16T15:57:50;17.30;92.10